sensor_id;sensor_type;location;lat;lon;timestamp;temperature;humidity
13375;DHT22;6756;51.354;15.754;2023-02-18T00:03:07;7.20;95.10
13375;DHT22;6756;51.354;15.754;2023-02-18T00:07:08;7.40;36.50
13375;DHT22;6756;51.354;15.754;2023-02-18T00:11:09;7.40;31.10
13375;DHT22;6756;51.354;15.754;2023-02-18T00:15:10;7.40;55.60
13375;DHT22;6756;51.354;15.754;2023-02-18T00:19:14;7.20;94.00
13375;DHT22;6756;51.354;15.754;2023-02-18T00:23:15;7.20;88.90
13375;DHT22;6756;51.354;15.754;2023-02-18T00:27:17;7.40;21.90
13375;DHT22;6756;51.354;15.754;2023-02-18T00:31:21;7.50;12.20
13375;DHT22;6756;51.354;15.754;2023-02-18T00:35:22;7.50;1.00
13375;DHT22;6756;51.354;15.754;2023-02-18T00:39:23;7.60;1.00
13375;DHT22;6756;51.354;15.754;2023-02-18T00:43:24;7.50;1.00
13375;DHT22;6756;51.354;15.754;2023-02-18T00:47:25;7.40;1.00
13375;DHT22;6756;51.354;15.754;2023-02-18T00:51:26;7.50;1.00
13375;DHT22;6756;51.354;15.754;2023-02-18T00:55:28;7.60;1.00
13375;DHT22;6756;51.354;15.754;2023-02-18T00:59:28;7.50;1.00
13375;DHT22;6756;51.354;15.754;2023-02-18T01:03:29;7.50;1.00
13375;DHT22;6756;51.354;15.754;2023-02-18T01:07:30;7.50;1.00
13375;DHT22;6756;51.354;15.754;2023-02-18T01:11:31;7.40;1.00
13375;DHT22;6756;51.354;15.754;2023-02-18T01:15:32;7.30;1.00
13375;DHT22;6756;51.354;15.754;2023-02-18T01:19:33;7.30;1.00
13375;DHT22;6756;51.354;15.754;2023-02-18T01:23:36;7.30;1.00
13375;DHT22;6756;51.354;15.754;2023-02-18T01:27:37;7.20;1.00
13375;DHT22;6756;51.354;15.754;2023-02-18T01:31:38;7.10;1.00
13375;DHT22;6756;51.354;15.754;2023-02-18T01:35:39;7.00;1.00
13375;DHT22;6756;51.354;15.754;2023-02-18T01:39:40;6.90;1.00
13375;DHT22;6756;51.354;15.754;2023-02-18T01:43:41;6.90;1.00
13375;DHT22;6756;51.354;15.754;2023-02-18T01:47:42;7.00;1.00
13375;DHT22;6756;51.354;15.754;2023-02-18T01:51:53;7.10;1.00
13375;DHT22;6756;51.354;15.754;2023-02-18T01:56:07;6.90;1.00
13375;DHT22;6756;51.354;15.754;2023-02-18T02:00:13;6.80;1.00
13375;DHT22;6756;51.354;15.754;2023-02-18T02:04:16;6.70;1.00
13375;DHT22;6756;51.354;15.754;2023-02-18T02:08:25;6.70;1.00
13375;DHT22;6756;51.354;15.754;2023-02-18T02:17:10;6.70;1.00
13375;DHT22;6756;51.354;15.754;2023-02-18T02:34:42;6.40;1.00
13375;DHT22;6756;51.354;15.754;2023-02-18T02:38:54;6.40;1.00
13375;DHT22;6756;51.354;15.754;2023-02-18T02:43:20;6.30;1.00
13375;DHT22;6756;51.354;15.754;2023-02-18T02:47:48;6.20;1.00
13375;DHT22;6756;51.354;15.754;2023-02-18T02:52:07;6.20;1.00
13375;DHT22;6756;51.354;15.754;2023-02-18T02:56:17;6.30;1.00
13375;DHT22;6756;51.354;15.754;2023-02-18T03:09:44;6.00;1.00
13375;DHT22;6756;51.354;15.754;2023-02-18T03:17:55;6.00;1.00
13375;DHT22;6756;51.354;15.754;2023-02-18T03:22:10;6.00;1.00
13375;DHT22;6756;51.354;15.754;2023-02-18T03:26:15;6.10;1.00
13375;DHT22;6756;51.354;15.754;2023-02-18T03:34:24;6.00;1.00
13375;DHT22;6756;51.354;15.754;2023-02-18T03:38:50;5.90;1.00
13375;DHT22;6756;51.354;15.754;2023-02-18T03:42:53;6.00;1.00
13375;DHT22;6756;51.354;15.754;2023-02-18T03:46:56;5.90;1.00
13375;DHT22;6756;51.354;15.754;2023-02-18T03:51:04;6.00;1.00
13375;DHT22;6756;51.354;15.754;2023-02-18T03:55:05;6.00;1.00
13375;DHT22;6756;51.354;15.754;2023-02-18T03:59:06;6.00;1.00
13375;DHT22;6756;51.354;15.754;2023-02-18T04:03:07;6.10;1.00
13375;DHT22;6756;51.354;15.754;2023-02-18T04:07:08;6.20;1.00
13375;DHT22;6756;51.354;15.754;2023-02-18T04:11:09;6.20;1.00
13375;DHT22;6756;51.354;15.754;2023-02-18T04:15:10;6.30;1.00
13375;DHT22;6756;51.354;15.754;2023-02-18T04:19:11;6.30;1.00
13375;DHT22;6756;51.354;15.754;2023-02-18T04:23:12;6.40;1.00
13375;DHT22;6756;51.354;15.754;2023-02-18T04:27:12;6.30;1.00
13375;DHT22;6756;51.354;15.754;2023-02-18T04:31:13;6.30;1.00
13375;DHT22;6756;51.354;15.754;2023-02-18T04:35:15;6.30;1.00
13375;DHT22;6756;51.354;15.754;2023-02-18T04:39:15;6.30;1.00
13375;DHT22;6756;51.354;15.754;2023-02-18T04:43:16;6.40;1.00
13375;DHT22;6756;51.354;15.754;2023-02-18T04:47:17;6.40;1.00
13375;DHT22;6756;51.354;15.754;2023-02-18T04:51:18;6.40;1.00
13375;DHT22;6756;51.354;15.754;2023-02-18T04:55:19;6.40;1.00
13375;DHT22;6756;51.354;15.754;2023-02-18T04:59:20;6.50;1.00
13375;DHT22;6756;51.354;15.754;2023-02-18T05:03:20;6.50;1.00
13375;DHT22;6756;51.354;15.754;2023-02-18T05:07:21;6.50;1.00
13375;DHT22;6756;51.354;15.754;2023-02-18T05:11:22;6.60;1.00
13375;DHT22;6756;51.354;15.754;2023-02-18T05:15:23;6.50;1.00
13375;DHT22;6756;51.354;15.754;2023-02-18T05:19:24;6.60;1.00
13375;DHT22;6756;51.354;15.754;2023-02-18T05:23:24;6.60;1.00
13375;DHT22;6756;51.354;15.754;2023-02-18T05:27:25;6.60;1.00
13375;DHT22;6756;51.354;15.754;2023-02-18T05:31:26;6.60;1.00
13375;DHT22;6756;51.354;15.754;2023-02-18T05:35:27;6.60;1.00
13375;DHT22;6756;51.354;15.754;2023-02-18T05:39:28;6.60;1.00
13375;DHT22;6756;51.354;15.754;2023-02-18T05:43:28;6.60;1.00
13375;DHT22;6756;51.354;15.754;2023-02-18T05:47:30;6.60;1.00
13375;DHT22;6756;51.354;15.754;2023-02-18T05:51:30;6.60;1.00
13375;DHT22;6756;51.354;15.754;2023-02-18T05:55:31;6.60;1.00
13375;DHT22;6756;51.354;15.754;2023-02-18T05:59:37;6.60;1.00
13375;DHT22;6756;51.354;15.754;2023-02-18T06:03:37;6.60;1.00
13375;DHT22;6756;51.354;15.754;2023-02-18T06:07:38;6.70;1.00
13375;DHT22;6756;51.354;15.754;2023-02-18T06:11:39;6.60;1.00
13375;DHT22;6756;51.354;15.754;2023-02-18T06:15:40;6.70;1.00
13375;DHT22;6756;51.354;15.754;2023-02-18T06:19:41;6.60;1.00
13375;DHT22;6756;51.354;15.754;2023-02-18T06:23:42;6.70;1.00
13375;DHT22;6756;51.354;15.754;2023-02-18T06:27:43;6.80;1.00
13375;DHT22;6756;51.354;15.754;2023-02-18T06:31:44;6.70;1.00
13375;DHT22;6756;51.354;15.754;2023-02-18T06:36:03;6.80;1.00
13375;DHT22;6756;51.354;15.754;2023-02-18T06:40:07;6.80;1.00
13375;DHT22;6756;51.354;15.754;2023-02-18T06:44:08;6.80;1.00
13375;DHT22;6756;51.354;15.754;2023-02-18T06:48:09;6.80;1.00
13375;DHT22;6756;51.354;15.754;2023-02-18T06:52:11;6.90;1.00
13375;DHT22;6756;51.354;15.754;2023-02-18T06:56:11;7.00;1.00
13375;DHT22;6756;51.354;15.754;2023-02-18T07:00:12;7.00;1.00
13375;DHT22;6756;51.354;15.754;2023-02-18T07:04:13;7.10;1.00
13375;DHT22;6756;51.354;15.754;2023-02-18T07:08:15;7.10;1.00
13375;DHT22;6756;51.354;15.754;2023-02-18T07:12:16;7.20;1.00
13375;DHT22;6756;51.354;15.754;2023-02-18T07:16:16;7.30;1.00
13375;DHT22;6756;51.354;15.754;2023-02-18T07:20:18;7.40;1.00
13375;DHT22;6756;51.354;15.754;2023-02-18T07:24:19;7.50;1.00
13375;DHT22;6756;51.354;15.754;2023-02-18T07:28:20;7.50;1.00
13375;DHT22;6756;51.354;15.754;2023-02-18T07:32:21;7.60;1.00
13375;DHT22;6756;51.354;15.754;2023-02-18T07:36:21;7.60;1.00
13375;DHT22;6756;51.354;15.754;2023-02-18T07:40:22;7.70;1.00
13375;DHT22;6756;51.354;15.754;2023-02-18T07:44:23;7.70;1.00
13375;DHT22;6756;51.354;15.754;2023-02-18T07:48:47;7.60;1.00
13375;DHT22;6756;51.354;15.754;2023-02-18T07:52:48;7.60;1.00
13375;DHT22;6756;51.354;15.754;2023-02-18T07:56:52;7.60;1.00
13375;DHT22;6756;51.354;15.754;2023-02-18T08:00:54;7.60;1.00
13375;DHT22;6756;51.354;15.754;2023-02-18T08:04:55;7.70;1.00
13375;DHT22;6756;51.354;15.754;2023-02-18T08:08:56;7.80;1.00
13375;DHT22;6756;51.354;15.754;2023-02-18T08:12:57;7.80;1.00
13375;DHT22;6756;51.354;15.754;2023-02-18T08:16:58;7.80;1.00
13375;DHT22;6756;51.354;15.754;2023-02-18T08:21:02;7.70;1.00
13375;DHT22;6756;51.354;15.754;2023-02-18T08:25:07;7.70;1.00
13375;DHT22;6756;51.354;15.754;2023-02-18T08:29:11;7.60;1.00
13375;DHT22;6756;51.354;15.754;2023-02-18T08:33:15;7.70;1.00
13375;DHT22;6756;51.354;15.754;2023-02-18T08:37:16;7.70;1.00
13375;DHT22;6756;51.354;15.754;2023-02-18T08:41:23;7.70;1.00
13375;DHT22;6756;51.354;15.754;2023-02-18T08:45:23;7.70;1.00
13375;DHT22;6756;51.354;15.754;2023-02-18T08:49:24;7.60;1.00
13375;DHT22;6756;51.354;15.754;2023-02-18T08:53:25;7.40;1.00
13375;DHT22;6756;51.354;15.754;2023-02-18T08:57:27;7.20;28.40
13375;DHT22;6756;51.354;15.754;2023-02-18T09:01:28;7.00;99.90
13375;DHT22;6756;51.354;15.754;2023-02-18T09:05:29;6.80;99.90
13375;DHT22;6756;51.354;15.754;2023-02-18T09:09:30;6.50;99.90
13375;DHT22;6756;51.354;15.754;2023-02-18T09:13:32;6.20;1.00
13375;DHT22;6756;51.354;15.754;2023-02-18T09:17:33;6.10;1.00
13375;DHT22;6756;51.354;15.754;2023-02-18T09:21:34;6.00;99.90
13375;DHT22;6756;51.354;15.754;2023-02-18T09:25:38;6.00;99.90
13375;DHT22;6756;51.354;15.754;2023-02-18T09:29:40;6.10;99.90
13375;DHT22;6756;51.354;15.754;2023-02-18T09:33:46;6.20;99.90
13375;DHT22;6756;51.354;15.754;2023-02-18T09:37:48;6.20;1.00
13375;DHT22;6756;51.354;15.754;2023-02-18T09:41:58;6.30;92.40
13375;DHT22;6756;51.354;15.754;2023-02-18T09:46:01;6.40;1.00
13375;DHT22;6756;51.354;15.754;2023-02-18T09:54:15;6.80;1.00
13375;DHT22;6756;51.354;15.754;2023-02-18T09:58:20;6.70;99.90
13375;DHT22;6756;51.354;15.754;2023-02-18T10:02:23;6.70;99.90
13375;DHT22;6756;51.354;15.754;2023-02-18T10:06:29;6.90;99.90
13375;DHT22;6756;51.354;15.754;2023-02-18T10:10:42;7.20;99.90
13375;DHT22;6756;51.354;15.754;2023-02-18T10:14:53;7.50;99.90
13375;DHT22;6756;51.354;15.754;2023-02-18T10:19:03;7.80;99.90
13375;DHT22;6756;51.354;15.754;2023-02-18T10:23:04;7.90;75.30
13375;DHT22;6756;51.354;15.754;2023-02-18T10:27:06;8.10;1.00
13375;DHT22;6756;51.354;15.754;2023-02-18T10:31:10;8.20;1.00
13375;DHT22;6756;51.354;15.754;2023-02-18T10:35:53;8.20;1.00
13375;DHT22;6756;51.354;15.754;2023-02-18T10:52:50;8.20;99.90
13375;DHT22;6756;51.354;15.754;2023-02-18T10:56:57;8.30;99.90
13375;DHT22;6756;51.354;15.754;2023-02-18T11:01:00;8.40;1.00
13375;DHT22;6756;51.354;15.754;2023-02-18T11:05:25;8.40;1.00
13375;DHT22;6756;51.354;15.754;2023-02-18T11:09:45;8.30;1.00
13375;DHT22;6756;51.354;15.754;2023-02-18T11:13:56;8.40;1.00
13375;DHT22;6756;51.354;15.754;2023-02-18T11:18:27;8.50;1.00
13375;DHT22;6756;51.354;15.754;2023-02-18T11:22:31;8.50;1.00
13375;DHT22;6756;51.354;15.754;2023-02-18T11:26:35;8.70;1.00
13375;DHT22;6756;51.354;15.754;2023-02-18T11:30:38;8.90;1.00
13375;DHT22;6756;51.354;15.754;2023-02-18T11:34:42;8.90;1.00
13375;DHT22;6756;51.354;15.754;2023-02-18T11:38:50;8.70;99.90
13375;DHT22;6756;51.354;15.754;2023-02-18T11:43:02;8.50;99.90
13375;DHT22;6756;51.354;15.754;2023-02-18T11:47:27;8.40;99.90
13375;DHT22;6756;51.354;15.754;2023-02-18T11:51:34;8.40;99.90
13375;DHT22;6756;51.354;15.754;2023-02-18T11:55:37;8.40;1.00
13375;DHT22;6756;51.354;15.754;2023-02-18T11:59:41;8.40;1.00
13375;DHT22;6756;51.354;15.754;2023-02-18T12:03:53;8.50;1.00
13375;DHT22;6756;51.354;15.754;2023-02-18T12:08:13;8.50;1.00
13375;DHT22;6756;51.354;15.754;2023-02-18T12:12:34;8.50;1.00
13375;DHT22;6756;51.354;15.754;2023-02-18T12:21:25;8.40;99.90
13375;DHT22;6756;51.354;15.754;2023-02-18T12:25:55;8.20;1.00
13375;DHT22;6756;51.354;15.754;2023-02-18T12:39:08;8.30;8.30
13375;DHT22;6756;51.354;15.754;2023-02-18T12:52:19;8.90;99.90
13375;DHT22;6756;51.354;15.754;2023-02-18T12:56:53;9.10;99.90
13375;DHT22;6756;51.354;15.754;2023-02-18T13:01:54;9.30;99.90
13375;DHT22;6756;51.354;15.754;2023-02-18T13:14:25;9.70;99.90
13375;DHT22;6756;51.354;15.754;2023-02-18T13:19:01;9.70;99.90
13375;DHT22;6756;51.354;15.754;2023-02-18T13:23:03;9.70;99.90
13375;DHT22;6756;51.354;15.754;2023-02-18T13:27:11;9.70;21.80
13375;DHT22;6756;51.354;15.754;2023-02-18T13:35:28;9.90;99.90
13375;DHT22;6756;51.354;15.754;2023-02-18T13:39:31;9.90;1.00
13375;DHT22;6756;51.354;15.754;2023-02-18T13:43:34;9.90;1.00
13375;DHT22;6756;51.354;15.754;2023-02-18T13:47:39;9.90;1.00
13375;DHT22;6756;51.354;15.754;2023-02-18T13:51:44;10.00;11.60
13375;DHT22;6756;51.354;15.754;2023-02-18T13:59:56;10.00;99.90
13375;DHT22;6756;51.354;15.754;2023-02-18T14:03:59;10.00;99.90
13375;DHT22;6756;51.354;15.754;2023-02-18T14:29:27;10.10;99.90
13375;DHT22;6756;51.354;15.754;2023-02-18T14:33:31;10.10;13.20
13375;DHT22;6756;51.354;15.754;2023-02-18T14:38:01;10.10;99.90
13375;DHT22;6756;51.354;15.754;2023-02-18T14:47:37;10.10;1.00
13375;DHT22;6756;51.354;15.754;2023-02-18T14:51:20;10.00;1.00
13375;DHT22;6756;51.354;15.754;2023-02-18T14:55:32;10.00;1.00
13375;DHT22;6756;51.354;15.754;2023-02-18T14:59:44;9.90;1.00
13375;DHT22;6756;51.354;15.754;2023-02-18T15:03:47;9.90;99.90
13375;DHT22;6756;51.354;15.754;2023-02-18T15:08:02;9.90;1.00
13375;DHT22;6756;51.354;15.754;2023-02-18T15:12:05;9.80;74.50
13375;DHT22;6756;51.354;15.754;2023-02-18T15:16:11;9.80;99.90
13375;DHT22;6756;51.354;15.754;2023-02-18T15:20:13;9.70;99.90
13375;DHT22;6756;51.354;15.754;2023-02-18T15:24:35;9.60;79.50
13375;DHT22;6756;51.354;15.754;2023-02-18T15:28:59;9.60;99.90
13375;DHT22;6756;51.354;15.754;2023-02-18T15:33:00;9.60;99.90
13375;DHT22;6756;51.354;15.754;2023-02-18T15:37:06;9.60;99.90
13375;DHT22;6756;51.354;15.754;2023-02-18T15:41:13;9.50;1.00
13375;DHT22;6756;51.354;15.754;2023-02-18T15:45:23;9.50;99.90
13375;DHT22;6756;51.354;15.754;2023-02-18T15:49:25;9.50;61.20
13375;DHT22;6756;51.354;15.754;2023-02-18T15:53:26;9.50;99.90
13375;DHT22;6756;51.354;15.754;2023-02-18T15:57:30;9.40;99.90
13375;DHT22;6756;51.354;15.754;2023-02-18T16:01:32;9.30;99.90
13375;DHT22;6756;51.354;15.754;2023-02-18T16:05:36;9.30;99.90
13375;DHT22;6756;51.354;15.754;2023-02-18T16:09:39;9.30;1.00
13375;DHT22;6756;51.354;15.754;2023-02-18T16:13:46;9.30;1.00
13375;DHT22;6756;51.354;15.754;2023-02-18T16:17:48;9.30;29.20
13375;DHT22;6756;51.354;15.754;2023-02-18T16:21:49;9.30;99.90
13375;DHT22;6756;51.354;15.754;2023-02-18T16:25:49;9.30;99.90
13375;DHT22;6756;51.354;15.754;2023-02-18T16:29:50;9.40;75.80
13375;DHT22;6756;51.354;15.754;2023-02-18T16:33:52;9.40;1.00
13375;DHT22;6756;51.354;15.754;2023-02-18T16:37:54;9.30;99.90
13375;DHT22;6756;51.354;15.754;2023-02-18T16:41:57;9.30;99.10
13375;DHT22;6756;51.354;15.754;2023-02-18T16:46:20;9.30;1.00
13375;DHT22;6756;51.354;15.754;2023-02-18T16:50:22;9.30;99.90
13375;DHT22;6756;51.354;15.754;2023-02-18T16:54:23;9.30;1.00
13375;DHT22;6756;51.354;15.754;2023-02-18T16:58:24;9.20;1.00
13375;DHT22;6756;51.354;15.754;2023-02-18T17:02:25;9.30;99.90
13375;DHT22;6756;51.354;15.754;2023-02-18T17:06:28;9.30;99.90
13375;DHT22;6756;51.354;15.754;2023-02-18T17:10:29;9.20;99.90
13375;DHT22;6756;51.354;15.754;2023-02-18T17:14:30;9.20;99.90
13375;DHT22;6756;51.354;15.754;2023-02-18T17:18:31;9.20;99.90
13375;DHT22;6756;51.354;15.754;2023-02-18T17:22:31;9.20;99.90
13375;DHT22;6756;51.354;15.754;2023-02-18T17:26:32;9.20;99.90
13375;DHT22;6756;51.354;15.754;2023-02-18T17:30:41;9.20;99.90
13375;DHT22;6756;51.354;15.754;2023-02-18T17:34:42;9.20;99.90
13375;DHT22;6756;51.354;15.754;2023-02-18T17:38:43;9.20;99.90
13375;DHT22;6756;51.354;15.754;2023-02-18T17:42:44;9.20;1.00
13375;DHT22;6756;51.354;15.754;2023-02-18T17:46:46;9.30;99.90
13375;DHT22;6756;51.354;15.754;2023-02-18T17:50:50;9.40;99.90
13375;DHT22;6756;51.354;15.754;2023-02-18T17:54:50;9.40;99.90
13375;DHT22;6756;51.354;15.754;2023-02-18T17:58:51;9.30;99.90
13375;DHT22;6756;51.354;15.754;2023-02-18T18:02:53;9.40;99.90
13375;DHT22;6756;51.354;15.754;2023-02-18T18:06:54;9.30;99.90
13375;DHT22;6756;51.354;15.754;2023-02-18T18:10:57;9.30;99.90
13375;DHT22;6756;51.354;15.754;2023-02-18T18:14:58;9.30;99.90
13375;DHT22;6756;51.354;15.754;2023-02-18T18:19:03;9.40;99.90
13375;DHT22;6756;51.354;15.754;2023-02-18T18:23:06;9.50;95.10
13375;DHT22;6756;51.354;15.754;2023-02-18T18:27:08;9.60;1.00
13375;DHT22;6756;51.354;15.754;2023-02-18T18:31:15;9.70;1.00
13375;DHT22;6756;51.354;15.754;2023-02-18T18:35:27;9.60;58.40
13375;DHT22;6756;51.354;15.754;2023-02-18T18:39:28;9.50;99.90
13375;DHT22;6756;51.354;15.754;2023-02-18T18:43:31;9.40;99.90
13375;DHT22;6756;51.354;15.754;2023-02-18T18:47:32;9.30;1.00
13375;DHT22;6756;51.354;15.754;2023-02-18T18:51:34;9.20;99.90
13375;DHT22;6756;51.354;15.754;2023-02-18T18:55:38;9.10;1.00
13375;DHT22;6756;51.354;15.754;2023-02-18T18:59:40;9.10;99.60
13375;DHT22;6756;51.354;15.754;2023-02-18T19:03:41;9.10;99.90
13375;DHT22;6756;51.354;15.754;2023-02-18T19:07:42;9.00;1.00
13375;DHT22;6756;51.354;15.754;2023-02-18T19:11:44;9.00;99.90
13375;DHT22;6756;51.354;15.754;2023-02-18T19:15:46;9.10;99.90
13375;DHT22;6756;51.354;15.754;2023-02-18T19:19:47;9.10;99.90
13375;DHT22;6756;51.354;15.754;2023-02-18T19:23:48;9.10;99.90
13375;DHT22;6756;51.354;15.754;2023-02-18T19:27:50;9.10;1.00
13375;DHT22;6756;51.354;15.754;2023-02-18T19:31:51;9.10;1.00
13375;DHT22;6756;51.354;15.754;2023-02-18T19:35:52;9.10;1.00
13375;DHT22;6756;51.354;15.754;2023-02-18T19:39:53;9.00;99.90
13375;DHT22;6756;51.354;15.754;2023-02-18T19:43:54;8.90;1.00
13375;DHT22;6756;51.354;15.754;2023-02-18T19:47:56;8.90;22.60
13375;DHT22;6756;51.354;15.754;2023-02-18T19:51:58;8.80;99.90
13375;DHT22;6756;51.354;15.754;2023-02-18T19:56:03;8.70;1.00
13375;DHT22;6756;51.354;15.754;2023-02-18T20:00:07;8.70;99.90
13375;DHT22;6756;51.354;15.754;2023-02-18T20:04:09;8.70;99.90
13375;DHT22;6756;51.354;15.754;2023-02-18T20:08:10;8.70;99.90
13375;DHT22;6756;51.354;15.754;2023-02-18T20:12:11;8.10;99.90
13375;DHT22;6756;51.354;15.754;2023-02-18T20:16:12;7.40;99.90
13375;DHT22;6756;51.354;15.754;2023-02-18T20:25:10;7.00;99.90
13375;DHT22;6756;51.354;15.754;2023-02-18T20:29:11;6.90;99.90
13375;DHT22;6756;51.354;15.754;2023-02-18T20:33:12;6.80;99.90
13375;DHT22;6756;51.354;15.754;2023-02-18T20:37:13;6.80;99.90
13375;DHT22;6756;51.354;15.754;2023-02-18T20:41:14;6.80;99.90
13375;DHT22;6756;51.354;15.754;2023-02-18T20:45:17;6.80;99.90
13375;DHT22;6756;51.354;15.754;2023-02-18T20:49:19;6.70;99.90
13375;DHT22;6756;51.354;15.754;2023-02-18T20:53:20;6.60;99.90
13375;DHT22;6756;51.354;15.754;2023-02-18T20:57:21;6.50;99.90
13375;DHT22;6756;51.354;15.754;2023-02-18T21:01:22;6.40;99.90
13375;DHT22;6756;51.354;15.754;2023-02-18T21:05:23;6.30;99.90
13375;DHT22;6756;51.354;15.754;2023-02-18T21:09:24;6.20;99.90
13375;DHT22;6756;51.354;15.754;2023-02-18T21:13:26;6.20;99.90
13375;DHT22;6756;51.354;15.754;2023-02-18T21:17:27;6.20;99.90
13375;DHT22;6756;51.354;15.754;2023-02-18T21:21:28;6.20;99.90
13375;DHT22;6756;51.354;15.754;2023-02-18T21:25:30;6.30;99.90
13375;DHT22;6756;51.354;15.754;2023-02-18T21:29:31;6.30;99.90
13375;DHT22;6756;51.354;15.754;2023-02-18T21:33:32;6.30;99.90
13375;DHT22;6756;51.354;15.754;2023-02-18T21:37:33;6.30;99.90
13375;DHT22;6756;51.354;15.754;2023-02-18T21:41:36;6.30;99.90
13375;DHT22;6756;51.354;15.754;2023-02-18T21:45:37;6.20;99.90
13375;DHT22;6756;51.354;15.754;2023-02-18T21:49:38;6.20;99.90
13375;DHT22;6756;51.354;15.754;2023-02-18T21:53:39;6.20;99.90
13375;DHT22;6756;51.354;15.754;2023-02-18T21:57:40;6.20;99.90
13375;DHT22;6756;51.354;15.754;2023-02-18T22:01:41;6.20;99.90
13375;DHT22;6756;51.354;15.754;2023-02-18T22:05:42;6.20;99.90
13375;DHT22;6756;51.354;15.754;2023-02-18T22:09:43;6.20;99.90
13375;DHT22;6756;51.354;15.754;2023-02-18T22:13:45;6.20;99.90
13375;DHT22;6756;51.354;15.754;2023-02-18T22:17:46;6.20;99.90
13375;DHT22;6756;51.354;15.754;2023-02-18T22:21:46;6.20;99.90
13375;DHT22;6756;51.354;15.754;2023-02-18T22:25:48;6.20;99.90
13375;DHT22;6756;51.354;15.754;2023-02-18T22:29:52;6.20;99.90
13375;DHT22;6756;51.354;15.754;2023-02-18T22:33:54;6.10;99.90
13375;DHT22;6756;51.354;15.754;2023-02-18T22:37:55;6.10;99.90
13375;DHT22;6756;51.354;15.754;2023-02-18T22:41:56;6.10;99.90
13375;DHT22;6756;51.354;15.754;2023-02-18T22:46:04;6.00;99.90
13375;DHT22;6756;51.354;15.754;2023-02-18T22:50:06;6.00;99.90
13375;DHT22;6756;51.354;15.754;2023-02-18T22:54:11;6.00;99.90
13375;DHT22;6756;51.354;15.754;2023-02-18T22:58:12;6.00;99.90
13375;DHT22;6756;51.354;15.754;2023-02-18T23:02:13;6.00;99.90
13375;DHT22;6756;51.354;15.754;2023-02-18T23:06:14;6.00;99.90
13375;DHT22;6756;51.354;15.754;2023-02-18T23:10:16;6.00;99.90
13375;DHT22;6756;51.354;15.754;2023-02-18T23:14:18;6.00;99.90
13375;DHT22;6756;51.354;15.754;2023-02-18T23:18:19;6.00;99.90
13375;DHT22;6756;51.354;15.754;2023-02-18T23:22:26;6.00;99.90
13375;DHT22;6756;51.354;15.754;2023-02-18T23:26:33;6.00;99.90
13375;DHT22;6756;51.354;15.754;2023-02-18T23:30:34;6.00;99.90
13375;DHT22;6756;51.354;15.754;2023-02-18T23:34:34;6.00;99.90
13375;DHT22;6756;51.354;15.754;2023-02-18T23:38:35;6.00;99.90
13375;DHT22;6756;51.354;15.754;2023-02-18T23:42:36;6.10;99.90
13375;DHT22;6756;51.354;15.754;2023-02-18T23:46:38;6.10;99.90
13375;DHT22;6756;51.354;15.754;2023-02-18T23:50:39;6.10;99.90
13375;DHT22;6756;51.354;15.754;2023-02-18T23:54:40;6.10;99.90
13375;DHT22;6756;51.354;15.754;2023-02-18T23:58:43;6.10;99.90
